createdAt,value
2022-08-16T00:02:32.130Z,12.77
2022-08-16T00:04:59.012Z,13.40
2022-08-16T00:07:29.092Z,13.15
2022-08-16T00:09:57.947Z,13.18
2022-08-16T00:12:28.135Z,13.23
2022-08-16T00:14:56.374Z,13.63
2022-08-16T00:17:25.673Z,13.77
2022-08-16T00:19:53.687Z,14.52
2022-08-16T00:22:25.570Z,13.25
2022-08-16T00:24:55.210Z,13.82
2022-08-16T00:27:23.263Z,13.25
2022-08-16T00:30:08.256Z,13.02
2022-08-16T00:32:40.601Z,13.65
2022-08-16T00:35:15.660Z,13.27
2022-08-16T00:37:58.947Z,14.45
2022-08-16T00:40:50.771Z,14.00
2022-08-16T00:43:42.480Z,13.60
2022-08-16T00:46:36.254Z,14.10
2022-08-16T00:49:18.949Z,13.95
2022-08-16T00:51:47.782Z,14.63
2022-08-16T00:54:24.674Z,15.25
2022-08-16T00:56:57.573Z,15.25
2022-08-16T00:59:30.051Z,14.27
2022-08-16T01:02:01.084Z,13.98
2022-08-16T01:05:10.855Z,14.68
2022-08-16T01:07:51.150Z,14.93
2022-08-16T01:10:32.201Z,15.43
2022-08-16T01:13:06.532Z,15.60
2022-08-16T01:15:36.233Z,16.48
2022-08-16T01:18:08.439Z,16.35
2022-08-16T01:21:33.759Z,16.50
2022-08-16T01:24:53.678Z,16.20
2022-08-16T01:27:30.995Z,15.35
2022-08-16T01:30:20.547Z,16.33
2022-08-16T01:33:01.407Z,16.45
2022-08-16T01:35:43.656Z,16.67
2022-08-16T01:38:28.201Z,16.35
2022-08-16T01:41:02.994Z,15.68
2022-08-16T01:43:31.774Z,17.40
2022-08-16T01:46:37.791Z,16.77
2022-08-16T01:48:53.563Z,15.93
2022-08-16T01:51:23.601Z,17.00
2022-08-16T01:53:55.277Z,15.77
2022-08-16T01:56:24.909Z,16.27
2022-08-16T01:58:55.004Z,16.80
2022-08-16T02:01:22.955Z,17.75
2022-08-16T02:03:52.649Z,17.23
2022-08-16T02:06:33.827Z,17.17
2022-08-16T02:09:05.359Z,16.98
2022-08-16T02:11:47.584Z,16.83
2022-08-16T02:14:18.125Z,17.15
2022-08-16T02:16:45.174Z,16.80
2022-08-16T02:19:16.109Z,15.80
2022-08-16T02:22:08.584Z,17.10
2022-08-16T02:24:42.158Z,16.55
2022-08-16T02:27:12.849Z,16.55
2022-08-16T02:29:41.542Z,16.80
2022-08-16T02:32:50.235Z,15.63
2022-08-16T02:34:58.396Z,16.95
2022-08-16T02:37:51.175Z,17.33
2022-08-16T02:40:13.328Z,18.05
2022-08-16T02:42:45.627Z,18.25
2022-08-16T02:45:17.309Z,18.00
2022-08-16T02:48:00.738Z,19.13
2022-08-16T02:51:04.111Z,17.17
2022-08-16T02:53:23.545Z,18.20
2022-08-16T02:55:51.500Z,18.42
2022-08-16T02:58:20.542Z,18.98
2022-08-16T03:00:57.173Z,17.13
2022-08-16T03:03:26.393Z,17.20
2022-08-16T03:05:54.347Z,18.17
2022-08-16T03:08:50.267Z,18.60
2022-08-16T03:11:16.931Z,18.17
2022-08-16T03:13:51.201Z,19.17
2022-08-16T03:16:38.250Z,19.23
2022-08-16T03:19:08.338Z,18.67
2022-08-16T03:21:37.763Z,17.08
2022-08-16T03:24:28.551Z,19.23
2022-08-16T03:26:59.239Z,18.98
2022-08-16T03:29:30.067Z,19.55
2022-08-16T03:31:59.191Z,17.83
2022-08-16T03:34:26.995Z,19.70
2022-08-16T03:36:54.749Z,20.17
2022-08-16T03:39:22.134Z,20.65
2022-08-16T03:41:51.318Z,20.40
2022-08-16T03:44:44.158Z,20.25
2022-08-16T03:47:19.265Z,20.92
2022-08-16T03:49:51.641Z,20.70
2022-08-16T03:52:23.466Z,20.75
2022-08-16T03:54:57.469Z,19.77
2022-08-16T03:57:24.945Z,21.40
2022-08-16T03:59:59.081Z,20.90
2022-08-16T04:02:31.735Z,21.30
2022-08-16T04:04:58.865Z,20.90
2022-08-16T04:07:25.889Z,21.33
2022-08-16T04:09:52.703Z,20.30
2022-08-16T04:12:53.479Z,21.48
2022-08-16T04:15:09.631Z,21.42
2022-08-16T04:17:37.225Z,22.40
2022-08-16T04:20:11.080Z,22.15
2022-08-16T04:22:56.197Z,22.30
2022-08-16T04:25:23.535Z,22.17
2022-08-16T04:27:54.121Z,22.92
2022-08-16T04:30:30.235Z,23.65
2022-08-16T04:32:58.785Z,23.20
2022-08-16T04:35:26.433Z,24.08
2022-08-16T04:38:00.890Z,24.55
2022-08-16T04:40:38.502Z,24.45
2022-08-16T04:43:05.805Z,23.00
2022-08-16T04:45:36.628Z,24.45
2022-08-16T04:48:04.405Z,23.85
2022-08-16T04:50:31.384Z,25.50
2022-08-16T04:52:59.241Z,26.35
2022-08-16T04:55:37.939Z,26.98
2022-08-16T04:58:43.693Z,29.35
2022-08-16T05:00:55.055Z,25.30
2022-08-16T05:03:21.951Z,27.13
2022-08-16T05:05:58.996Z,28.05
2022-08-16T05:08:30.915Z,28.50
2022-08-16T05:11:05.504Z,28.08
2022-08-16T05:13:41.134Z,29.02
2022-08-16T05:16:27.605Z,28.63
2022-08-16T05:18:58.610Z,27.55
2022-08-16T05:21:27.040Z,29.23
2022-08-16T05:23:58.685Z,29.75
2022-08-16T05:26:29.256Z,29.60
2022-08-16T05:28:57.612Z,30.33
2022-08-16T05:31:29.872Z,27.25
2022-08-16T05:33:59.537Z,28.83
2022-08-16T05:36:33.810Z,25.67
2022-08-16T05:39:02.872Z,29.27
2022-08-16T05:41:29.634Z,29.38
2022-08-16T05:44:00.256Z,29.80
2022-08-16T05:46:32.589Z,28.80
2022-08-16T05:49:09.048Z,28.70
2022-08-16T05:51:38.991Z,27.85
2022-08-16T05:54:08.185Z,28.42
2022-08-16T05:56:37.379Z,27.80
2022-08-16T05:59:06.430Z,30.60
2022-08-16T06:01:38.415Z,28.42
2022-08-16T06:04:13.088Z,30.25
2022-08-16T06:06:57.573Z,28.77
2022-08-16T06:09:43.837Z,28.55
2022-08-16T06:12:27.177Z,29.45
2022-08-16T06:14:59.164Z,31.08
2022-08-16T06:17:43.164Z,33.00
2022-08-16T06:20:14.863Z,32.08
2022-08-16T06:22:47.741Z,31.50
2022-08-16T06:25:36.107Z,31.33
2022-08-16T06:28:08.948Z,30.02
2022-08-16T06:30:43.279Z,32.83
2022-08-16T06:33:12.718Z,30.00
2022-08-16T06:35:40.575Z,31.70
2022-08-16T06:38:33.684Z,29.70
2022-08-16T06:40:55.608Z,28.98
2022-08-16T06:43:27.782Z,27.98
2022-08-16T06:45:55.618Z,26.50
2022-08-16T06:48:32.941Z,26.58
2022-08-16T06:51:02.642Z,26.30
2022-08-16T06:53:29.806Z,25.33
2022-08-16T06:56:00.758Z,25.15
2022-08-16T06:58:31.717Z,25.13
2022-08-16T07:01:03.065Z,24.35
2022-08-16T07:03:55.957Z,24.88
2022-08-16T07:06:26.714Z,24.42
2022-08-16T07:08:54.822Z,23.33
2022-08-16T07:11:45.765Z,23.90
2022-08-16T07:14:24.333Z,23.42
2022-08-16T07:16:55.134Z,23.80
2022-08-16T07:19:21.963Z,23.05
2022-08-16T07:22:39.139Z,24.17
2022-08-16T07:24:55.716Z,23.17
2022-08-16T07:27:22.555Z,22.80
2022-08-16T07:29:55.661Z,23.33
2022-08-16T07:32:29.654Z,21.13
2022-08-16T07:34:58.768Z,21.15
2022-08-16T07:37:25.665Z,21.95
2022-08-16T07:39:56.956Z,22.08
2022-08-16T07:42:34.673Z,22.10
2022-08-16T07:45:03.568Z,21.25
2022-08-16T07:47:36.796Z,20.33
2022-08-16T07:50:05.444Z,20.48
2022-08-16T07:52:34.401Z,20.40
2022-08-16T07:55:01.394Z,21.33
2022-08-16T07:57:28.202Z,19.85
2022-08-16T07:59:57.092Z,20.45
2022-08-16T08:02:27.511Z,18.95
2022-08-16T08:04:56.170Z,17.25
2022-08-16T08:07:27.511Z,16.55
2022-08-16T08:09:56.430Z,16.90
2022-08-16T08:12:31.382Z,14.60
2022-08-16T08:14:59.501Z,13.23
2022-08-16T08:17:42.564Z,13.73
2022-08-16T08:20:13.513Z,13.23
2022-08-16T08:23:00.804Z,12.30
2022-08-16T08:25:53.707Z,11.82
2022-08-16T08:28:17.872Z,10.45
2022-08-16T08:30:50.961Z,9.52
2022-08-16T08:33:27.740Z,8.85
2022-08-16T08:36:01.149Z,8.85
2022-08-16T08:38:45.071Z,8.18
2022-08-16T08:41:15.412Z,8.27
2022-08-16T08:43:47.154Z,8.45
2022-08-16T08:46:21.174Z,8.30
2022-08-16T08:49:01.940Z,8.00
2022-08-16T08:51:35.696Z,7.97
2022-08-16T08:54:09.447Z,7.57
2022-08-16T08:56:45.313Z,7.82
2022-08-16T08:59:20.370Z,7.32
2022-08-16T09:01:57.403Z,7.32
2022-08-16T09:04:28.956Z,7.30
2022-08-16T09:06:58.452Z,8.25
2022-08-16T09:09:33.170Z,8.50
2022-08-16T09:12:06.516Z,7.85
2022-08-16T09:14:38.768Z,7.70
2022-08-16T09:17:38.165Z,7.45
2022-08-16T09:20:05.940Z,6.63
2022-08-16T09:22:34.657Z,9.02
2022-08-16T09:25:09.739Z,8.35
2022-08-16T09:27:57.083Z,8.35
2022-08-16T09:30:34.789Z,8.10
2022-08-16T09:33:12.071Z,8.57
2022-08-16T09:35:39.464Z,8.48
2022-08-16T09:38:09.955Z,9.18
2022-08-16T09:40:43.965Z,9.70
2022-08-16T09:43:46.371Z,9.45
2022-08-16T09:46:00.518Z,9.52
2022-08-16T09:48:44.182Z,9.57
2022-08-16T09:51:13.360Z,9.10
2022-08-16T09:53:41.843Z,10.18
2022-08-16T09:56:31.556Z,9.45
2022-08-16T09:59:04.976Z,9.90
2022-08-16T10:01:36.493Z,10.07
2022-08-16T10:04:13.106Z,10.43
2022-08-16T10:06:54.085Z,10.30
2022-08-16T10:09:25.310Z,9.90
2022-08-16T10:12:11.652Z,11.10
2022-08-16T10:14:46.397Z,9.98
2022-08-16T10:17:13.584Z,10.50
2022-08-16T10:19:43.374Z,9.05
2022-08-16T10:22:12.798Z,10.15
2022-08-16T10:27:18.693Z,10.50
2022-08-16T10:28:05.892Z,10.82
2022-08-16T10:30:43.690Z,11.05
2022-08-16T10:33:13.694Z,10.10
2022-08-16T10:35:46.571Z,9.40
2022-08-16T10:38:27.232Z,9.95
2022-08-16T10:40:54.823Z,8.55
2022-08-16T10:43:21.712Z,9.32
2022-08-16T10:46:00.290Z,8.63
2022-08-16T10:48:29.990Z,9.05
2022-08-16T10:50:59.482Z,8.48
2022-08-16T10:53:32.762Z,7.55
2022-08-16T10:56:02.431Z,8.00
2022-08-16T10:58:34.281Z,8.27
2022-08-16T11:03:57.412Z,7.78
2022-08-16T11:06:26.998Z,7.93
2022-08-16T11:14:31.856Z,7.63
2022-08-16T11:17:02.746Z,7.32
2022-08-16T11:20:00.544Z,7.78
2022-08-16T11:22:41.863Z,6.97
2022-08-16T11:25:12.380Z,8.05
2022-08-16T11:27:39.773Z,6.43
2022-08-16T11:30:09.373Z,7.20
2022-08-16T11:32:39.728Z,6.55
2022-08-16T11:35:15.265Z,6.57
2022-08-16T11:40:47.063Z,6.65
2022-08-16T11:43:23.769Z,6.15
2022-08-16T11:45:55.194Z,6.07
2022-08-16T11:48:25.988Z,5.93
2022-08-16T11:50:54.122Z,6.68
2022-08-16T11:53:22.139Z,6.68
2022-08-16T11:55:54.448Z,6.40
2022-08-16T11:58:23.237Z,6.60
2022-08-16T12:00:53.325Z,6.43
2022-08-16T12:03:34.973Z,5.72
2022-08-16T12:06:25.146Z,6.28
2022-08-16T12:09:01.061Z,6.03
2022-08-16T12:11:31.503Z,6.05
2022-08-16T12:14:04.370Z,5.85
2022-08-16T12:16:34.236Z,6.35
2022-08-16T12:19:06.963Z,6.22
2022-08-16T12:21:58.184Z,6.40
2022-08-16T12:24:28.197Z,6.60
2022-08-16T12:26:56.034Z,6.00
2022-08-16T12:29:25.830Z,6.50
2022-08-16T12:32:01.336Z,6.38
2022-08-16T12:34:50.865Z,7.22
2022-08-16T12:37:24.138Z,6.10
2022-08-16T12:39:56.462Z,6.38
2022-08-16T12:42:34.684Z,6.45
2022-08-16T12:45:09.700Z,6.70
2022-08-16T12:48:09.909Z,6.15
2022-08-16T12:50:42.671Z,5.55
2022-08-16T12:53:18.019Z,6.03
2022-08-16T12:55:45.546Z,5.47
2022-08-16T12:58:49.770Z,5.55
2022-08-16T13:01:01.901Z,5.60
2022-08-16T13:03:29.130Z,5.57
2022-08-16T13:05:59.616Z,5.32
2022-08-16T13:08:30.723Z,5.40
2022-08-16T13:11:01.889Z,5.65
2022-08-16T13:13:29.591Z,5.90
2022-08-16T13:16:03.621Z,5.75
2022-08-16T13:18:34.512Z,6.07
2022-08-16T13:21:08.066Z,5.25
2022-08-16T13:23:43.748Z,5.70
2022-08-16T13:26:11.046Z,5.90
2022-08-16T13:28:38.357Z,6.20
2022-08-16T13:31:05.857Z,5.68
2022-08-16T13:33:37.161Z,5.70
2022-08-16T13:36:21.224Z,6.50
2022-08-16T13:38:57.665Z,5.72
2022-08-16T13:41:26.949Z,6.43
2022-08-16T13:43:59.733Z,5.95
2022-08-16T13:46:28.868Z,7.05
2022-08-16T13:48:58.032Z,6.25
2022-08-16T13:51:29.392Z,6.45
2022-08-16T13:54:04.092Z,5.30
2022-08-16T13:56:37.446Z,5.65
2022-08-16T13:59:13.897Z,6.35
2022-08-16T14:01:55.155Z,5.97
2022-08-16T14:04:26.499Z,5.60
2022-08-16T14:06:55.456Z,6.10
2022-08-16T14:09:24.864Z,5.78
2022-08-16T14:11:54.967Z,6.22
2022-08-16T14:14:28.517Z,5.75
2022-08-16T14:16:58.661Z,5.97
2022-08-16T14:19:27.885Z,5.45
2022-08-16T14:22:14.479Z,5.97
2022-08-16T14:24:47.405Z,5.45
2022-08-16T14:27:21.340Z,5.28
2022-08-16T14:29:50.911Z,5.85
2022-08-16T14:32:33.885Z,6.03
2022-08-16T14:35:14.097Z,6.03
2022-08-16T14:37:43.391Z,5.50
2022-08-16T14:40:13.454Z,6.05
2022-08-16T14:42:44.161Z,5.82
2022-08-16T14:45:15.598Z,5.38
2022-08-16T14:47:44.553Z,5.60
2022-08-16T14:50:15.249Z,5.95
2022-08-16T14:52:56.228Z,5.40
2022-08-16T14:55:24.884Z,5.28
2022-08-16T14:57:54.518Z,5.38
2022-08-16T15:00:32.898Z,5.60
2022-08-16T15:03:02.539Z,5.00
2022-08-16T15:07:59.054Z,4.97
2022-08-16T15:10:29.449Z,4.63
2022-08-16T15:13:01.068Z,5.10
2022-08-16T15:15:30.667Z,4.93
2022-08-16T15:18:01.473Z,4.32
2022-08-16T15:20:34.029Z,4.78
2022-08-16T15:23:05.293Z,5.20
2022-08-16T15:25:41.102Z,4.88
2022-08-16T15:28:30.982Z,4.57
2022-08-16T15:31:03.413Z,4.25
2022-08-16T15:33:35.150Z,5.15
2022-08-16T15:36:03.809Z,5.20
2022-08-16T15:39:02.937Z,5.18
2022-08-16T15:41:31.513Z,5.00
2022-08-16T15:44:05.216Z,4.63
2022-08-16T15:46:56.371Z,4.93
2022-08-16T15:49:34.520Z,5.10
2022-08-16T15:52:20.664Z,5.85
2022-08-16T15:54:53.191Z,5.18
2022-08-16T15:57:25.171Z,5.40
2022-08-16T15:59:55.800Z,5.45
2022-08-16T16:02:30.763Z,5.00
2022-08-16T16:05:01.860Z,5.57
2022-08-16T16:07:31.319Z,5.72
2022-08-16T16:10:00.765Z,5.38
2022-08-16T16:12:54.164Z,5.72
2022-08-16T16:15:19.663Z,5.65
2022-08-16T16:17:50.996Z,5.78
2022-08-16T16:20:27.307Z,5.90
2022-08-16T16:23:04.446Z,5.40
2022-08-16T16:25:44.680Z,5.47
2022-08-16T16:29:05.011Z,5.28
2022-08-16T16:31:02.966Z,5.57
2022-08-16T16:33:30.997Z,5.68
2022-08-16T16:36:04.012Z,6.22
2022-08-16T16:38:35.611Z,5.65
2022-08-16T16:41:09.921Z,11.63
2022-08-16T16:43:40.920Z,12.48
2022-08-16T16:46:40.719Z,14.45
2022-08-16T16:48:58.239Z,19.35
2022-08-16T16:51:28.012Z,11.20
2022-08-16T16:53:57.544Z,6.70
2022-08-16T16:56:32.217Z,6.10
2022-08-16T16:59:06.969Z,5.60
2022-08-16T17:01:59.608Z,6.05
2022-08-16T17:04:31.729Z,6.40
2022-08-16T17:07:01.598Z,6.53
2022-08-16T17:09:29.548Z,5.93
2022-08-16T17:11:56.977Z,6.15
2022-08-16T17:17:13.131Z,6.43
2022-08-16T17:19:41.651Z,5.82
2022-08-16T17:22:15.516Z,5.82
2022-08-16T17:24:50.581Z,5.90
2022-08-16T17:27:34.173Z,6.20
2022-08-16T17:30:15.747Z,6.32
2022-08-16T17:32:54.661Z,5.97
2022-08-16T17:35:33.971Z,6.18
2022-08-16T17:38:39.046Z,5.88
2022-08-16T17:39:28.064Z,5.78
2022-08-16T17:41:09.999Z,6.60
2022-08-16T17:43:44.371Z,6.07
2022-08-16T17:46:41.485Z,6.55
2022-08-16T17:49:02.970Z,6.80
2022-08-16T17:51:30.988Z,6.32
2022-08-16T17:53:58.783Z,6.32
2022-08-16T17:56:26.192Z,6.30
2022-08-16T17:58:54.457Z,6.88
2022-08-16T18:01:25.731Z,7.03
2022-08-16T18:04:06.638Z,6.32
2022-08-16T18:06:36.868Z,6.35
2022-08-16T18:09:04.230Z,6.50
2022-08-16T18:11:35.735Z,7.00
2022-08-16T18:14:04.120Z,6.40
2022-08-16T18:16:32.419Z,6.57
2022-08-16T18:19:00.507Z,7.22
2022-08-16T18:21:46.715Z,6.20
2022-08-16T18:24:15.095Z,6.32
2022-08-16T18:26:42.214Z,7.03
2022-08-16T18:29:09.272Z,6.85
2022-08-16T18:31:36.481Z,6.60
2022-08-16T18:34:03.582Z,6.63
2022-08-16T18:36:31.857Z,7.13
2022-08-16T18:38:59.308Z,7.53
2022-08-16T18:41:26.824Z,7.38
2022-08-16T18:43:58.769Z,7.38
2022-08-16T18:46:43.408Z,7.15
2022-08-16T18:49:11.864Z,7.35
2022-08-16T18:51:44.892Z,7.80
2022-08-16T18:54:16.709Z,7.55
2022-08-16T18:56:55.932Z,7.65
2022-08-16T18:59:27.474Z,7.53
2022-08-16T19:01:59.766Z,7.72
2022-08-16T19:04:56.197Z,7.72
2022-08-16T19:07:16.486Z,7.32
2022-08-16T19:09:45.909Z,7.60
2022-08-16T19:12:15.682Z,8.27
2022-08-16T19:14:45.697Z,7.90
2022-08-16T19:17:12.556Z,8.30
2022-08-16T19:19:39.816Z,9.00
2022-08-16T19:22:06.594Z,8.45
2022-08-16T19:24:33.398Z,8.48
2022-08-16T19:27:01.764Z,8.73
2022-08-16T19:29:29.471Z,9.85
2022-08-16T19:31:56.686Z,10.52
2022-08-16T19:34:23.613Z,11.85
2022-08-16T19:36:50.517Z,12.10
2022-08-16T19:39:17.572Z,12.07
2022-08-16T19:41:52.098Z,11.98
2022-08-16T19:44:21.590Z,11.95
2022-08-16T19:46:49.443Z,11.98
2022-08-16T19:49:17.053Z,13.70
2022-08-16T19:51:46.251Z,14.45
2022-08-16T19:54:12.988Z,13.75
2022-08-16T19:56:39.731Z,14.48
2022-08-16T19:59:39.663Z,15.32
2022-08-16T20:01:53.642Z,14.40
2022-08-16T20:04:22.703Z,15.32
2022-08-16T20:06:52.436Z,14.73
2022-08-16T20:09:20.812Z,15.23
2022-08-16T20:11:49.614Z,15.13
2022-08-16T20:14:24.899Z,15.68
2022-08-16T20:16:54.518Z,14.93
2022-08-16T20:19:21.226Z,15.98
2022-08-16T20:21:48.090Z,13.25
2022-08-16T20:24:33.663Z,13.95
2022-08-16T20:27:02.954Z,14.35
2022-08-16T20:29:29.746Z,13.98
2022-08-16T20:31:57.595Z,13.50
2022-08-16T20:34:24.366Z,14.68
2022-08-16T20:36:51.089Z,14.73
2022-08-16T20:39:17.826Z,13.07
2022-08-16T20:41:44.655Z,14.57
2022-08-16T20:44:12.774Z,15.13
2022-08-16T20:46:39.544Z,13.98
2022-08-16T20:49:09.348Z,15.32
2022-08-16T20:51:46.979Z,14.10
2022-08-16T20:54:20.270Z,14.98
2022-08-16T20:56:49.007Z,15.07
2022-08-16T20:59:17.277Z,14.48
2022-08-16T21:01:49.696Z,15.32
2022-08-16T21:04:22.796Z,14.80
2022-08-16T21:06:54.226Z,14.82
2022-08-16T21:09:28.160Z,14.98
2022-08-16T21:11:57.978Z,15.27
2022-08-16T21:14:26.572Z,15.85
2022-08-16T21:16:56.247Z,15.50
2022-08-16T21:19:24.521Z,14.00
2022-08-16T21:21:53.736Z,14.23
2022-08-16T21:24:21.864Z,15.32
2022-08-16T21:26:55.589Z,15.65
2022-08-16T21:29:28.432Z,14.93
2022-08-16T21:32:13.902Z,15.30
2022-08-16T21:34:42.282Z,14.38
2022-08-16T21:37:10.844Z,15.18
2022-08-16T21:39:38.853Z,15.13
2022-08-16T21:42:15.210Z,13.60
2022-08-16T21:44:44.511Z,15.52
2022-08-16T21:47:12.515Z,14.55
2022-08-16T21:49:40.696Z,15.93
2022-08-16T21:52:25.932Z,17.52
2022-08-16T21:54:56.267Z,18.38
2022-08-16T21:57:23.942Z,17.23
2022-08-16T21:59:52.381Z,19.30
2022-08-16T22:02:21.107Z,20.73
2022-08-16T22:04:49.818Z,20.05
2022-08-16T22:07:18.336Z,21.17
2022-08-16T22:09:47.709Z,20.42
2022-08-16T22:12:24.375Z,20.65
2022-08-16T22:14:51.160Z,20.15
2022-08-16T22:17:18.426Z,19.38
2022-08-16T22:19:47.969Z,21.10
2022-08-16T22:22:15.417Z,22.05
2022-08-16T22:24:42.170Z,20.52
2022-08-16T22:27:09.016Z,23.92
2022-08-16T22:29:39.501Z,24.38
2022-08-16T22:32:09.370Z,24.40
2022-08-16T22:34:37.581Z,24.33
2022-08-16T22:37:05.466Z,24.33
2022-08-16T22:39:33.899Z,23.70
2022-08-16T22:42:08.893Z,25.50
2022-08-16T22:44:37.911Z,26.63
2022-08-16T22:47:05.161Z,26.20
2022-08-16T22:49:33.554Z,27.35
2022-08-16T22:52:09.578Z,26.80
2022-08-16T22:54:48.142Z,27.13
2022-08-16T22:57:16.785Z,25.38
2022-08-16T22:59:47.138Z,26.20
2022-08-16T23:02:19.627Z,24.40
2022-08-16T23:04:46.396Z,25.80
2022-08-16T23:07:14.218Z,25.33
2022-08-16T23:09:41.009Z,24.88
2022-08-16T23:12:08.342Z,25.10
2022-08-16T23:14:36.287Z,25.73
2022-08-16T23:17:03.849Z,25.40
2022-08-16T23:19:30.934Z,25.15
2022-08-16T23:21:58.770Z,25.75
2022-08-16T23:24:27.613Z,26.67
2022-08-16T23:26:54.355Z,25.45
2022-08-16T23:29:25.184Z,27.13
2022-08-16T23:32:09.050Z,24.90
2022-08-16T23:34:35.867Z,24.23
2022-08-16T23:37:02.653Z,25.65
2022-08-16T23:39:30.928Z,26.98
2022-08-16T23:41:58.865Z,25.27
2022-08-16T23:44:42.280Z,25.38
2022-08-16T23:47:15.327Z,25.05
2022-08-16T23:49:57.136Z,26.08
2022-08-16T23:52:53.299Z,24.00
2022-08-16T23:55:17.376Z,26.38
2022-08-16T23:57:44.877Z,24.75
